createdAt,value
2022-10-23T00:01:26.289Z,4.07
2022-10-23T00:03:56.248Z,3.40
2022-10-23T00:06:25.310Z,3.40
2022-10-23T00:08:55.173Z,3.30
2022-10-23T00:11:26.089Z,2.60
2022-10-23T00:13:58.575Z,3.67
2022-10-23T00:16:26.689Z,3.07
2022-10-23T00:18:54.645Z,3.50
2022-10-23T00:21:23.184Z,2.63
2022-10-23T00:23:51.460Z,2.50
2022-10-23T00:26:21.247Z,2.90
2022-10-23T00:28:52.869Z,2.70
2022-10-23T00:31:22.382Z,2.77
2022-10-23T00:33:50.645Z,2.70
2022-10-23T00:36:20.637Z,2.70
2022-10-23T00:38:48.898Z,3.00
2022-10-23T00:41:21.099Z,2.70
2022-10-23T00:44:12.216Z,2.43
2022-10-23T00:46:40.911Z,2.50
2022-10-23T00:49:09.414Z,2.83
2022-10-23T00:51:41.773Z,2.53
2022-10-23T00:54:23.506Z,2.63
2022-10-23T00:56:57.655Z,4.10
2022-10-23T00:59:25.685Z,2.83
2022-10-23T01:01:53.778Z,3.10
2022-10-23T01:04:22.793Z,2.63
2022-10-23T01:07:00.721Z,2.53
2022-10-23T01:09:33.631Z,3.17
2022-10-23T01:12:11.841Z,2.77
2022-10-23T01:14:54.629Z,2.70
2022-10-23T01:17:31.788Z,2.90
2022-10-23T01:20:31.526Z,2.90
2022-10-23T01:23:20.417Z,2.43
2022-10-23T01:26:05.637Z,3.10
2022-10-23T01:28:42.057Z,2.40
2022-10-23T01:31:16.600Z,2.73
2022-10-23T01:33:50.189Z,2.37
2022-10-23T01:36:25.278Z,3.00
2022-10-23T01:38:58.372Z,1.90
2022-10-23T01:41:31.352Z,1.83
2022-10-23T01:44:07.988Z,1.97
2022-10-23T01:46:37.370Z,2.50
2022-10-23T01:49:09.029Z,1.93
2022-10-23T01:51:38.939Z,2.33
2022-10-23T01:54:11.478Z,2.10
2022-10-23T01:56:42.463Z,2.30
2022-10-23T01:59:17.481Z,2.70
2022-10-23T02:01:49.001Z,2.50
2022-10-23T02:04:22.856Z,2.47
2022-10-23T02:06:50.959Z,2.10
2022-10-23T02:09:18.908Z,2.30
2022-10-23T02:11:55.296Z,2.40
2022-10-23T02:14:37.744Z,2.03
2022-10-23T02:17:16.669Z,2.17
2022-10-23T02:19:51.179Z,2.40
2022-10-23T02:22:25.480Z,1.93
2022-10-23T02:24:58.693Z,1.70
2022-10-23T02:27:34.157Z,2.40
2022-10-23T02:30:07.465Z,2.30
2022-10-23T02:32:37.784Z,2.60
2022-10-23T02:35:07.205Z,2.37
2022-10-23T02:37:35.476Z,2.60
2022-10-23T02:40:04.857Z,2.00
2022-10-23T02:42:38.104Z,1.87
2022-10-23T02:45:13.127Z,1.80
2022-10-23T02:47:53.377Z,2.50
2022-10-23T02:50:30.386Z,2.10
2022-10-23T02:53:07.024Z,2.20
2022-10-23T02:55:46.397Z,2.10
2022-10-23T02:58:22.230Z,2.20
2022-10-23T03:00:56.358Z,1.90
2022-10-23T03:03:31.416Z,2.00
2022-10-23T03:05:59.500Z,2.03
2022-10-23T03:08:27.484Z,1.83
2022-10-23T03:10:55.488Z,2.20
2022-10-23T03:13:23.513Z,1.83
2022-10-23T03:15:52.811Z,1.80
2022-10-23T03:18:20.772Z,1.67
2022-10-23T03:20:48.736Z,1.63
2022-10-23T03:23:16.813Z,1.60
2022-10-23T03:25:44.764Z,1.83
2022-10-23T03:28:12.712Z,2.43
2022-10-23T03:30:40.705Z,1.90
2022-10-23T03:33:09.987Z,2.23
2022-10-23T03:35:38.032Z,1.33
2022-10-23T03:38:05.983Z,1.73
2022-10-23T03:40:34.049Z,1.70
2022-10-23T03:43:02.116Z,1.47
2022-10-23T03:45:30.800Z,2.27
2022-10-23T03:47:58.779Z,1.60
2022-10-23T03:50:28.207Z,1.93
2022-10-23T03:52:56.169Z,1.80
2022-10-23T03:55:25.621Z,1.90
2022-10-23T03:57:53.575Z,1.43
2022-10-23T04:00:22.646Z,1.77
2022-10-23T04:02:50.640Z,1.43
2022-10-23T04:05:18.832Z,1.80
2022-10-23T04:07:48.123Z,2.30
2022-10-23T04:10:16.072Z,1.83
2022-10-23T04:12:44.494Z,1.60
2022-10-23T04:15:12.763Z,1.90
2022-10-23T04:17:40.717Z,2.20
2022-10-23T04:20:09.566Z,1.63
2022-10-23T04:22:37.505Z,1.60
2022-10-23T04:25:07.400Z,1.80
2022-10-23T04:27:35.369Z,1.73
2022-10-23T04:30:04.023Z,1.70
2022-10-23T04:32:32.166Z,2.13
2022-10-23T04:35:00.177Z,1.60
2022-10-23T04:37:28.476Z,1.60
2022-10-23T04:39:56.415Z,1.57
2022-10-23T04:44:58.502Z,1.53
2022-10-23T04:47:26.444Z,1.57
2022-10-23T04:49:54.396Z,2.30
2022-10-23T04:52:22.660Z,1.67
2022-10-23T04:54:51.143Z,1.90
2022-10-23T04:57:19.089Z,1.90
2022-10-23T04:59:48.401Z,1.73
2022-10-23T05:02:16.693Z,1.87
2022-10-23T05:04:44.671Z,1.97
2022-10-23T05:07:12.634Z,1.70
2022-10-23T05:09:40.604Z,1.97
2022-10-23T05:12:09.283Z,1.93
2022-10-23T05:14:37.245Z,1.47
2022-10-23T05:17:13.689Z,1.67
2022-10-23T05:19:47.030Z,1.97
2022-10-23T05:22:16.179Z,1.80
2022-10-23T05:24:46.999Z,2.23
2022-10-23T05:27:18.269Z,2.03
2022-10-23T05:29:46.198Z,1.60
2022-10-23T05:32:17.338Z,1.57
2022-10-23T05:34:45.527Z,1.63
2022-10-23T05:37:15.580Z,1.23
2022-10-23T05:39:43.873Z,2.07
2022-10-23T05:42:11.885Z,1.87
2022-10-23T05:44:40.074Z,1.80
2022-10-23T05:47:08.542Z,1.77
2022-10-23T05:49:38.060Z,1.20
2022-10-23T05:52:06.276Z,1.37
2022-10-23T05:54:34.251Z,1.83
2022-10-23T05:57:02.174Z,1.57
2022-10-23T05:59:30.173Z,1.53
2022-10-23T06:01:58.273Z,1.20
2022-10-23T06:04:26.551Z,1.57
2022-10-23T06:06:56.024Z,1.57
2022-10-23T06:09:23.979Z,1.50
2022-10-23T06:11:51.981Z,1.07
2022-10-23T06:14:20.091Z,2.03
2022-10-23T06:16:48.132Z,1.57
2022-10-23T06:19:16.072Z,1.50
2022-10-23T06:21:44.055Z,2.07
2022-10-23T06:24:13.356Z,1.27
2022-10-23T06:26:41.374Z,1.20
2022-10-23T06:29:09.423Z,1.37
2022-10-23T06:31:37.413Z,1.53
2022-10-23T06:34:05.958Z,1.73
2022-10-23T06:36:33.974Z,1.40
2022-10-23T06:39:01.927Z,1.43
2022-10-23T06:41:31.231Z,1.50
2022-10-23T06:43:59.175Z,1.43
2022-10-23T06:46:29.755Z,1.37
2022-10-23T06:48:57.818Z,1.53
2022-10-23T06:51:29.550Z,1.90
2022-10-23T06:53:57.976Z,1.20
2022-10-23T06:56:29.043Z,1.50
2022-10-23T06:58:58.386Z,1.47
2022-10-23T07:01:26.567Z,1.03
2022-10-23T07:03:54.699Z,1.33
2022-10-23T07:06:22.698Z,1.20
2022-10-23T07:08:50.977Z,1.20
2022-10-23T07:11:19.472Z,1.70
2022-10-23T07:13:47.501Z,1.60
2022-10-23T07:16:18.989Z,1.60
2022-10-23T07:18:48.325Z,1.30
2022-10-23T07:21:16.874Z,2.17
2022-10-23T07:23:44.877Z,1.57
2022-10-23T07:26:16.660Z,1.43
2022-10-23T07:28:47.225Z,2.03
2022-10-23T07:31:16.513Z,1.47
2022-10-23T07:33:44.634Z,1.50
2022-10-23T07:36:12.621Z,1.70
2022-10-23T07:38:40.648Z,1.50
2022-10-23T07:41:11.630Z,1.70
2022-10-23T07:43:40.828Z,1.40
2022-10-23T07:46:09.746Z,1.70
2022-10-23T07:48:39.561Z,1.30
2022-10-23T07:51:12.316Z,1.57
2022-10-23T07:53:41.212Z,1.60
2022-10-23T07:56:15.731Z,1.37
2022-10-23T07:58:44.009Z,1.40
2022-10-23T08:01:20.645Z,1.33
2022-10-23T08:03:50.050Z,1.53
2022-10-23T08:06:18.076Z,1.40
2022-10-23T08:11:25.771Z,2.00
2022-10-23T08:13:54.428Z,1.33
2022-10-23T08:16:22.743Z,1.40
2022-10-23T08:18:52.658Z,1.67
2022-10-23T08:21:21.032Z,1.70
2022-10-23T08:23:49.156Z,1.40
2022-10-23T08:26:17.193Z,1.10
2022-10-23T08:28:45.183Z,1.70
2022-10-23T08:31:19.772Z,1.53
2022-10-23T08:36:24.844Z,2.50
2022-10-23T08:38:54.680Z,2.17
2022-10-23T08:41:28.793Z,2.40
2022-10-23T08:44:03.788Z,2.03
2022-10-23T08:46:35.707Z,2.00
2022-10-23T08:49:19.074Z,1.53
2022-10-23T08:51:53.356Z,1.50
2022-10-23T08:54:26.738Z,1.87
2022-10-23T08:57:01.399Z,2.07
2022-10-23T08:59:39.477Z,1.67
2022-10-23T09:02:17.821Z,1.50
2022-10-23T09:04:49.058Z,1.90
2022-10-23T09:07:29.558Z,1.50
2022-10-23T09:10:20.047Z,2.10
2022-10-23T09:12:48.215Z,2.73
2022-10-23T09:15:26.077Z,1.87
2022-10-23T09:18:01.219Z,1.50
2022-10-23T09:20:34.048Z,1.93
2022-10-23T09:23:19.878Z,1.30
2022-10-23T09:25:50.821Z,1.93
2022-10-23T09:28:23.772Z,2.77
2022-10-23T09:30:52.952Z,2.33
2022-10-23T09:33:23.603Z,2.20
2022-10-23T09:35:57.772Z,2.87
2022-10-23T09:38:33.004Z,2.33
2022-10-23T09:41:07.442Z,2.00
2022-10-23T09:43:35.660Z,2.63
2022-10-23T09:46:06.849Z,2.43
2022-10-23T09:48:35.479Z,1.80
2022-10-23T09:51:05.766Z,2.10
2022-10-23T09:53:39.882Z,1.90
2022-10-23T09:56:26.395Z,2.17
2022-10-23T09:58:57.824Z,1.73
2022-10-23T10:01:27.609Z,3.23
2022-10-23T10:03:56.754Z,1.87
2022-10-23T10:06:28.147Z,2.00
2022-10-23T10:08:59.738Z,2.83
2022-10-23T10:11:35.426Z,2.43
2022-10-23T10:14:32.115Z,4.40
2022-10-23T10:17:04.765Z,4.13
2022-10-23T10:19:48.891Z,3.80
2022-10-23T10:22:30.272Z,4.10
2022-10-23T10:25:08.125Z,3.97
2022-10-23T10:27:46.843Z,3.63
2022-10-23T10:30:17.800Z,2.80
2022-10-23T10:32:52.515Z,3.07
2022-10-23T10:35:41.078Z,4.13
2022-10-23T10:38:36.496Z,4.30
2022-10-23T10:41:26.109Z,4.47
2022-10-23T10:44:15.394Z,3.47
2022-10-23T10:46:51.331Z,4.00
2022-10-23T10:49:26.850Z,3.87
2022-10-23T10:52:05.512Z,3.40
2022-10-23T10:54:48.723Z,3.83
2022-10-23T10:57:32.292Z,2.80
2022-10-23T11:00:07.368Z,3.17
2022-10-23T11:02:41.643Z,3.67
2022-10-23T11:05:21.000Z,4.83
2022-10-23T11:07:56.759Z,5.87
2022-10-23T11:10:25.100Z,4.87
2022-10-23T11:12:54.650Z,6.20
2022-10-23T11:15:27.508Z,7.20
2022-10-23T11:17:59.654Z,5.70
2022-10-23T11:20:55.163Z,5.33
2022-10-23T11:24:23.517Z,4.50
2022-10-23T11:27:19.075Z,4.87
2022-10-23T11:30:09.537Z,5.60
2022-10-23T11:33:16.775Z,4.80
2022-10-23T11:35:55.606Z,3.90
2022-10-23T11:38:27.984Z,4.40
2022-10-23T11:41:00.746Z,4.40
2022-10-23T11:43:31.434Z,3.60
2022-10-23T11:46:13.434Z,3.60
2022-10-23T11:48:43.365Z,4.00
2022-10-23T11:51:29.888Z,3.87
2022-10-23T11:54:27.023Z,3.80
2022-10-23T11:57:12.052Z,4.13
2022-10-23T11:59:53.709Z,3.00
2022-10-23T12:02:31.915Z,4.00
2022-10-23T12:05:04.565Z,3.20
2022-10-23T12:07:36.965Z,4.23
2022-10-23T12:10:07.882Z,3.70
2022-10-23T12:12:40.703Z,2.80
2022-10-23T12:15:22.012Z,3.53
2022-10-23T12:17:53.991Z,3.10
2022-10-23T12:20:46.283Z,3.80
2022-10-23T12:23:38.149Z,2.63
2022-10-23T12:26:25.181Z,3.23
2022-10-23T12:29:05.894Z,2.73
2022-10-23T12:31:47.995Z,3.10
2022-10-23T12:34:35.722Z,3.17
2022-10-23T12:37:28.838Z,3.00
2022-10-23T12:39:58.902Z,3.00
2022-10-23T12:42:30.643Z,2.43
2022-10-23T12:45:00.510Z,2.43
2022-10-23T12:47:29.512Z,3.27
2022-10-23T12:49:58.817Z,3.33
2022-10-23T12:52:26.809Z,3.20
2022-10-23T12:54:54.721Z,2.93
2022-10-23T12:57:26.481Z,3.00
2022-10-23T12:59:59.132Z,2.90
2022-10-23T13:02:29.190Z,1.83
2022-10-23T13:05:02.389Z,3.67
2022-10-23T13:07:33.619Z,2.73
2022-10-23T13:10:02.635Z,2.77
2022-10-23T13:12:32.800Z,3.43
2022-10-23T13:15:13.980Z,2.60
2022-10-23T13:17:44.727Z,3.37
2022-10-23T13:20:26.220Z,3.27
2022-10-23T13:23:02.564Z,4.00
2022-10-23T13:25:33.888Z,2.90
2022-10-23T13:28:25.766Z,4.07
2022-10-23T13:31:04.454Z,3.73
2022-10-23T13:33:36.808Z,2.70
2022-10-23T13:36:21.802Z,3.00
2022-10-23T13:39:03.069Z,3.70
2022-10-23T13:41:39.513Z,3.53
2022-10-23T13:44:07.968Z,2.40
2022-10-23T13:46:35.995Z,3.10
2022-10-23T13:49:04.282Z,2.50
2022-10-23T13:51:42.471Z,2.50
2022-10-23T13:54:16.848Z,3.00
2022-10-23T13:56:45.010Z,2.40
2022-10-23T13:59:13.779Z,2.97
2022-10-23T14:01:43.215Z,3.60
2022-10-23T14:04:12.138Z,2.97
2022-10-23T14:06:42.066Z,2.90
2022-10-23T14:09:14.714Z,2.63
2022-10-23T14:11:43.233Z,2.70
2022-10-23T14:14:11.309Z,2.80
2022-10-23T14:16:39.257Z,2.90
2022-10-23T14:19:07.855Z,2.90
2022-10-23T14:21:35.836Z,2.27
2022-10-23T14:24:05.383Z,2.60
2022-10-23T14:26:34.217Z,2.90
2022-10-23T14:29:06.514Z,3.20
2022-10-23T14:31:38.192Z,2.87
2022-10-23T14:34:06.178Z,3.10
2022-10-23T14:36:43.338Z,2.70
2022-10-23T14:39:19.597Z,2.97
2022-10-23T14:41:47.731Z,2.50
2022-10-23T14:44:15.650Z,2.67
2022-10-23T14:46:43.631Z,2.53
2022-10-23T14:49:11.574Z,1.93
2022-10-23T14:51:39.572Z,2.77
2022-10-23T14:54:08.991Z,2.80
2022-10-23T14:56:40.661Z,2.80
2022-10-23T14:59:10.564Z,2.87
2022-10-23T15:01:45.090Z,2.50
2022-10-23T15:04:14.819Z,2.10
2022-10-23T15:06:43.836Z,3.20
2022-10-23T15:09:12.024Z,3.67
2022-10-23T15:11:41.363Z,2.60
2022-10-23T15:14:09.392Z,2.13
2022-10-23T15:16:41.376Z,3.00
2022-10-23T15:19:13.525Z,3.10
2022-10-23T15:21:45.456Z,3.67
2022-10-23T15:24:13.483Z,2.70
2022-10-23T15:26:43.290Z,2.63
2022-10-23T15:29:12.060Z,2.10
2022-10-23T15:31:49.143Z,2.27
2022-10-23T15:34:20.005Z,2.93
2022-10-23T15:36:48.767Z,2.47
2022-10-23T15:39:19.992Z,2.67
2022-10-23T15:41:52.550Z,2.80
2022-10-23T15:44:22.977Z,2.83
2022-10-23T15:46:51.873Z,2.30
2022-10-23T15:49:20.656Z,2.50
2022-10-23T15:51:48.786Z,2.40
2022-10-23T15:54:19.022Z,2.60
2022-10-23T15:56:50.677Z,2.43
2022-10-23T15:59:21.169Z,2.60
2022-10-23T16:01:49.802Z,2.73
2022-10-23T16:04:18.408Z,2.50
2022-10-23T16:06:47.064Z,2.53
2022-10-23T16:09:16.287Z,2.13
2022-10-23T16:11:44.991Z,2.30
2022-10-23T16:14:17.369Z,2.50
2022-10-23T16:16:45.414Z,2.27
2022-10-23T16:19:14.099Z,2.43
2022-10-23T16:21:43.121Z,2.57
2022-10-23T16:24:11.526Z,2.47
2022-10-23T16:26:40.005Z,2.23
2022-10-23T16:29:09.861Z,2.90
2022-10-23T16:31:39.201Z,2.30
2022-10-23T16:34:07.844Z,2.77
2022-10-23T16:36:38.831Z,2.30
2022-10-23T16:39:07.476Z,2.50
2022-10-23T16:41:35.711Z,2.43
2022-10-23T16:44:03.815Z,2.80
2022-10-23T16:46:32.164Z,2.57
2022-10-23T16:49:02.809Z,3.10
2022-10-23T16:51:31.444Z,2.80
2022-10-23T16:54:00.029Z,2.70
2022-10-23T16:56:29.789Z,2.60
2022-10-23T17:01:33.901Z,2.50
2022-10-23T17:04:03.349Z,2.80
2022-10-23T17:06:33.608Z,3.37
2022-10-23T17:09:02.810Z,2.80
2022-10-23T17:11:32.797Z,2.77
2022-10-23T17:14:04.144Z,2.47
2022-10-23T17:16:35.924Z,3.23
2022-10-23T17:19:21.015Z,2.77
2022-10-23T17:21:57.227Z,2.87
2022-10-23T17:24:25.320Z,2.63
2022-10-23T17:26:53.991Z,2.33
2022-10-23T17:29:22.849Z,1.90
2022-10-23T17:31:52.028Z,2.53
2022-10-23T17:34:24.227Z,2.57
2022-10-23T17:36:55.633Z,2.70
2022-10-23T17:39:26.342Z,2.60
2022-10-23T17:41:55.153Z,2.20
2022-10-23T17:44:23.459Z,2.70
2022-10-23T17:46:53.725Z,2.67
2022-10-23T17:49:24.079Z,2.83
2022-10-23T17:51:55.682Z,3.10
2022-10-23T17:54:25.299Z,2.33
2022-10-23T17:56:53.286Z,3.17
2022-10-23T17:59:21.281Z,2.80
2022-10-23T18:01:49.990Z,2.50
2022-10-23T18:04:20.379Z,2.40
2022-10-23T18:06:52.567Z,2.80
2022-10-23T18:09:21.561Z,2.50
2022-10-23T18:11:50.655Z,2.40
2022-10-23T18:14:21.024Z,3.07
2022-10-23T18:16:50.145Z,2.70
2022-10-23T18:19:19.190Z,2.80
2022-10-23T18:21:49.169Z,2.50
2022-10-23T18:24:18.219Z,3.00
2022-10-23T18:26:47.805Z,3.20
2022-10-23T18:29:17.308Z,2.70
2022-10-23T18:31:47.885Z,3.10
2022-10-23T18:34:18.745Z,4.07
2022-10-23T18:36:47.243Z,3.00
2022-10-23T18:39:22.025Z,3.43
2022-10-23T18:41:54.225Z,2.50
2022-10-23T18:44:24.168Z,2.90
2022-10-23T18:46:52.819Z,2.73
2022-10-23T18:49:21.553Z,3.10
2022-10-23T18:51:50.656Z,2.50
2022-10-23T18:54:22.492Z,2.83
2022-10-23T18:56:50.598Z,3.00
2022-10-23T18:59:20.746Z,2.33
2022-10-23T19:01:49.382Z,2.97
2022-10-23T19:04:17.802Z,3.30
2022-10-23T19:06:46.636Z,2.40
2022-10-23T19:09:15.245Z,2.30
2022-10-23T19:11:45.430Z,2.17
2022-10-23T19:14:13.566Z,2.33
2022-10-23T19:16:46.148Z,2.70
2022-10-23T19:19:18.787Z,3.57
2022-10-23T19:21:47.605Z,2.30
2022-10-23T19:24:19.160Z,2.40
2022-10-23T19:26:49.260Z,2.33
2022-10-23T19:29:21.758Z,2.80
2022-10-23T19:31:50.565Z,2.73
2022-10-23T19:34:20.321Z,2.33
2022-10-23T19:36:49.267Z,2.00
2022-10-23T19:39:17.663Z,2.53
2022-10-23T19:41:47.785Z,2.80
2022-10-23T19:44:16.167Z,2.13
2022-10-23T19:46:44.404Z,2.60
2022-10-23T19:49:12.568Z,2.33
2022-10-23T19:51:40.838Z,2.50
2022-10-23T19:54:10.448Z,2.73
2022-10-23T19:56:38.816Z,2.50
2022-10-23T19:59:08.558Z,2.60
2022-10-23T20:01:36.554Z,2.50
2022-10-23T20:04:04.637Z,2.20
2022-10-23T20:06:35.388Z,2.40
2022-10-23T20:09:04.813Z,2.80
2022-10-23T20:11:33.056Z,2.80
2022-10-23T20:14:01.025Z,2.50
2022-10-23T20:16:33.824Z,2.47
2022-10-23T20:19:06.411Z,2.90
2022-10-23T20:21:37.217Z,2.17
2022-10-23T20:24:05.883Z,2.73
2022-10-23T20:26:34.495Z,2.83
2022-10-23T20:29:02.523Z,2.60
2022-10-23T20:31:31.988Z,2.60
2022-10-23T20:34:00.865Z,2.40
2022-10-23T20:36:31.117Z,2.87
2022-10-23T20:39:01.891Z,2.67
2022-10-23T20:41:32.917Z,3.20
2022-10-23T20:44:01.682Z,3.23
2022-10-23T20:46:31.017Z,2.57
2022-10-23T20:48:59.236Z,2.67
2022-10-23T20:51:27.831Z,2.80
2022-10-23T20:53:55.932Z,3.13
2022-10-23T20:56:30.108Z,3.23
2022-10-23T20:58:58.529Z,3.07
2022-10-23T21:01:26.912Z,3.10
2022-10-23T21:03:58.662Z,2.53
2022-10-23T21:06:37.093Z,2.63
2022-10-23T21:09:13.821Z,2.40
2022-10-23T21:11:41.881Z,2.27
2022-10-23T21:14:09.825Z,2.60
2022-10-23T21:16:40.673Z,2.80
2022-10-23T21:19:12.640Z,3.13
2022-10-23T21:21:41.013Z,3.10
2022-10-23T21:24:13.949Z,3.67
2022-10-23T21:26:42.184Z,2.40
2022-10-23T21:29:18.561Z,2.40
2022-10-23T21:31:53.793Z,2.07
2022-10-23T21:34:23.143Z,3.27
2022-10-23T21:37:11.889Z,2.40
2022-10-23T21:39:39.154Z,2.30
2022-10-23T21:42:07.492Z,2.43
2022-10-23T21:44:35.469Z,2.50
2022-10-23T21:47:03.460Z,3.00
2022-10-23T21:49:33.131Z,2.43
2022-10-23T21:52:01.142Z,2.37
2022-10-23T21:54:29.140Z,2.30
2022-10-23T21:56:57.111Z,2.30
2022-10-23T21:59:30.095Z,2.50
2022-10-23T22:02:00.333Z,2.50
2022-10-23T22:04:28.456Z,2.77
2022-10-23T22:06:57.851Z,2.13
2022-10-23T22:09:25.872Z,2.67
2022-10-23T22:11:55.267Z,2.07
2022-10-23T22:14:24.504Z,2.73
2022-10-23T22:16:52.477Z,2.00
2022-10-23T22:19:22.751Z,2.90
2022-10-23T22:21:51.650Z,1.97
2022-10-23T22:24:21.449Z,2.80
2022-10-23T22:26:52.085Z,2.20
2022-10-23T22:29:24.053Z,2.40
2022-10-23T22:31:53.046Z,1.90
2022-10-23T22:37:12.583Z,2.27
2022-10-23T22:39:42.168Z,2.37
2022-10-23T22:42:10.258Z,2.23
2022-10-23T22:44:38.264Z,1.70
2022-10-23T22:47:07.196Z,2.07
2022-10-23T22:49:35.337Z,2.37
2022-10-23T22:52:03.410Z,2.00
2022-10-23T22:54:31.670Z,2.20
2022-10-23T22:57:01.096Z,1.93
2022-10-23T22:59:29.236Z,2.27
2022-10-23T23:01:57.485Z,2.17
2022-10-23T23:04:37.358Z,3.90
2022-10-23T23:07:06.606Z,2.57
2022-10-23T23:09:38.487Z,1.90
2022-10-23T23:12:09.879Z,2.70
2022-10-23T23:14:38.373Z,2.37
2022-10-23T23:17:07.664Z,2.60
2022-10-23T23:19:35.871Z,2.17
2022-10-23T23:22:04.672Z,2.17
2022-10-23T23:24:33.008Z,2.07
2022-10-23T23:27:00.964Z,2.53
2022-10-23T23:29:30.541Z,2.13
2022-10-23T23:31:58.548Z,2.13
2022-10-23T23:34:26.724Z,1.73
2022-10-23T23:36:54.664Z,2.50
2022-10-23T23:39:22.598Z,2.70
2022-10-23T23:41:50.624Z,2.07
2022-10-23T23:44:18.601Z,2.40
2022-10-23T23:46:48.004Z,1.70
2022-10-23T23:49:15.979Z,2.10
2022-10-23T23:51:43.978Z,2.20
2022-10-23T23:54:11.960Z,2.43
2022-10-23T23:56:39.931Z,2.37
2022-10-23T23:59:07.923Z,2.03
